sensor_id;sensor_type;location;lat;lon;timestamp;temperature;humidity
11736;DHT22;5924;51.398;7.088;2022-07-15T00:02:06;14.00;99.90
11736;DHT22;5924;51.398;7.088;2022-07-15T00:04:32;14.00;99.90
11736;DHT22;5924;51.398;7.088;2022-07-15T00:06:58;13.90;99.90
11736;DHT22;5924;51.398;7.088;2022-07-15T00:09:24;14.00;99.90
11736;DHT22;5924;51.398;7.088;2022-07-15T00:12:10;14.00;99.90
11736;DHT22;5924;51.398;7.088;2022-07-15T00:14:36;14.00;99.90
11736;DHT22;5924;51.398;7.088;2022-07-15T00:17:03;14.00;99.90
11736;DHT22;5924;51.398;7.088;2022-07-15T00:19:28;14.00;99.90
11736;DHT22;5924;51.398;7.088;2022-07-15T00:21:54;14.00;99.90
11736;DHT22;5924;51.398;7.088;2022-07-15T00:24:19;13.90;99.90
11736;DHT22;5924;51.398;7.088;2022-07-15T00:26:45;13.90;99.90
11736;DHT22;5924;51.398;7.088;2022-07-15T00:29:11;13.90;99.90
11736;DHT22;5924;51.398;7.088;2022-07-15T00:31:36;13.90;99.90
11736;DHT22;5924;51.398;7.088;2022-07-15T00:34:02;13.90;99.90
11736;DHT22;5924;51.398;7.088;2022-07-15T00:36:29;13.80;99.90
11736;DHT22;5924;51.398;7.088;2022-07-15T00:38:54;13.80;99.90
11736;DHT22;5924;51.398;7.088;2022-07-15T00:41:20;13.80;99.90
11736;DHT22;5924;51.398;7.088;2022-07-15T00:43:46;13.80;99.90
11736;DHT22;5924;51.398;7.088;2022-07-15T00:46:21;13.80;99.90
11736;DHT22;5924;51.398;7.088;2022-07-15T00:48:47;13.80;99.90
11736;DHT22;5924;51.398;7.088;2022-07-15T00:51:12;13.80;99.90
11736;DHT22;5924;51.398;7.088;2022-07-15T00:53:39;13.90;99.90
11736;DHT22;5924;51.398;7.088;2022-07-15T00:56:08;13.90;99.90
11736;DHT22;5924;51.398;7.088;2022-07-15T00:58:37;14.00;99.90
11736;DHT22;5924;51.398;7.088;2022-07-15T01:01:03;14.00;99.90
11736;DHT22;5924;51.398;7.088;2022-07-15T01:03:31;14.10;99.90
11736;DHT22;5924;51.398;7.088;2022-07-15T01:05:57;14.10;99.90
11736;DHT22;5924;51.398;7.088;2022-07-15T01:08:23;14.20;99.90
11736;DHT22;5924;51.398;7.088;2022-07-15T01:10:49;14.20;99.90
11736;DHT22;5924;51.398;7.088;2022-07-15T01:13:19;16.00;99.90
11736;DHT22;5924;51.398;7.088;2022-07-15T01:15:46;14.30;99.90
11736;DHT22;5924;51.398;7.088;2022-07-15T01:18:11;14.30;99.90
11736;DHT22;5924;51.398;7.088;2022-07-15T01:20:41;14.40;99.90
11736;DHT22;5924;51.398;7.088;2022-07-15T01:23:07;14.40;99.90
11736;DHT22;5924;51.398;7.088;2022-07-15T01:25:33;14.40;99.90
11736;DHT22;5924;51.398;7.088;2022-07-15T01:27:59;14.50;99.90
11736;DHT22;5924;51.398;7.088;2022-07-15T01:30:25;14.50;99.90
11736;DHT22;5924;51.398;7.088;2022-07-15T01:32:51;14.40;99.90
11736;DHT22;5924;51.398;7.088;2022-07-15T01:35:17;14.40;99.90
11736;DHT22;5924;51.398;7.088;2022-07-15T01:37:43;14.40;99.90
11736;DHT22;5924;51.398;7.088;2022-07-15T01:40:10;14.40;99.90
11736;DHT22;5924;51.398;7.088;2022-07-15T01:42:36;14.40;99.90
11736;DHT22;5924;51.398;7.088;2022-07-15T01:45:06;14.40;99.90
11736;DHT22;5924;51.398;7.088;2022-07-15T01:47:32;14.40;99.90
11736;DHT22;5924;51.398;7.088;2022-07-15T01:49:59;14.40;99.90
11736;DHT22;5924;51.398;7.088;2022-07-15T01:52:25;14.40;99.90
11736;DHT22;5924;51.398;7.088;2022-07-15T01:54:51;14.40;99.90
11736;DHT22;5924;51.398;7.088;2022-07-15T01:57:17;14.40;99.90
11736;DHT22;5924;51.398;7.088;2022-07-15T01:59:43;14.40;99.90
11736;DHT22;5924;51.398;7.088;2022-07-15T02:02:09;14.30;99.90
11736;DHT22;5924;51.398;7.088;2022-07-15T02:04:35;14.30;99.90
11736;DHT22;5924;51.398;7.088;2022-07-15T02:07:02;14.30;99.90
11736;DHT22;5924;51.398;7.088;2022-07-15T02:09:29;14.30;99.90
11736;DHT22;5924;51.398;7.088;2022-07-15T02:11:55;14.30;99.90
11736;DHT22;5924;51.398;7.088;2022-07-15T02:14:20;14.30;99.90
11736;DHT22;5924;51.398;7.088;2022-07-15T02:16:46;14.30;99.90
11736;DHT22;5924;51.398;7.088;2022-07-15T02:19:12;14.20;99.90
11736;DHT22;5924;51.398;7.088;2022-07-15T02:21:37;14.20;99.90
11736;DHT22;5924;51.398;7.088;2022-07-15T02:24:04;14.20;99.90
11736;DHT22;5924;51.398;7.088;2022-07-15T02:26:30;14.10;99.90
11736;DHT22;5924;51.398;7.088;2022-07-15T02:28:55;14.10;99.90
11736;DHT22;5924;51.398;7.088;2022-07-15T02:31:21;14.10;99.90
11736;DHT22;5924;51.398;7.088;2022-07-15T02:33:47;14.00;99.90
11736;DHT22;5924;51.398;7.088;2022-07-15T02:36:13;13.90;99.90
11736;DHT22;5924;51.398;7.088;2022-07-15T02:38:39;13.90;99.90
11736;DHT22;5924;51.398;7.088;2022-07-15T02:41:06;13.80;99.90
11736;DHT22;5924;51.398;7.088;2022-07-15T02:43:32;13.60;99.90
11736;DHT22;5924;51.398;7.088;2022-07-15T02:45:58;13.50;99.90
11736;DHT22;5924;51.398;7.088;2022-07-15T02:48:23;13.30;99.90
11736;DHT22;5924;51.398;7.088;2022-07-15T02:50:49;13.20;99.90
11736;DHT22;5924;51.398;7.088;2022-07-15T02:53:15;13.10;99.90
11736;DHT22;5924;51.398;7.088;2022-07-15T02:55:41;13.00;99.90
11736;DHT22;5924;51.398;7.088;2022-07-15T02:58:07;13.00;99.90
11736;DHT22;5924;51.398;7.088;2022-07-15T03:00:32;12.90;99.90
11736;DHT22;5924;51.398;7.088;2022-07-15T03:02:58;12.80;99.90
11736;DHT22;5924;51.398;7.088;2022-07-15T03:05:25;12.80;99.90
11736;DHT22;5924;51.398;7.088;2022-07-15T03:07:50;12.70;99.90
11736;DHT22;5924;51.398;7.088;2022-07-15T03:10:17;12.70;99.90
11736;DHT22;5924;51.398;7.088;2022-07-15T03:12:42;12.60;99.90
11736;DHT22;5924;51.398;7.088;2022-07-15T03:15:08;12.50;99.90
11736;DHT22;5924;51.398;7.088;2022-07-15T03:17:35;12.50;99.90
11736;DHT22;5924;51.398;7.088;2022-07-15T03:20:01;12.50;99.90
11736;DHT22;5924;51.398;7.088;2022-07-15T03:22:27;12.40;99.90
11736;DHT22;5924;51.398;7.088;2022-07-15T03:24:55;12.40;99.90
11736;DHT22;5924;51.398;7.088;2022-07-15T03:27:21;12.30;99.90
11736;DHT22;5924;51.398;7.088;2022-07-15T03:29:47;12.30;99.90
11736;DHT22;5924;51.398;7.088;2022-07-15T03:32:13;12.30;99.90
11736;DHT22;5924;51.398;7.088;2022-07-15T03:34:41;12.20;99.90
11736;DHT22;5924;51.398;7.088;2022-07-15T03:37:08;12.20;99.90
11736;DHT22;5924;51.398;7.088;2022-07-15T03:39:33;12.20;99.90
11736;DHT22;5924;51.398;7.088;2022-07-15T03:41:59;12.20;99.90
11736;DHT22;5924;51.398;7.088;2022-07-15T03:44:25;12.20;99.90
11736;DHT22;5924;51.398;7.088;2022-07-15T03:46:50;12.10;99.90
11736;DHT22;5924;51.398;7.088;2022-07-15T03:49:16;12.10;99.90
11736;DHT22;5924;51.398;7.088;2022-07-15T03:51:42;12.20;99.90
11736;DHT22;5924;51.398;7.088;2022-07-15T03:54:08;12.20;99.90
11736;DHT22;5924;51.398;7.088;2022-07-15T03:56:34;12.20;99.90
11736;DHT22;5924;51.398;7.088;2022-07-15T03:59:00;12.20;99.90
11736;DHT22;5924;51.398;7.088;2022-07-15T04:01:26;12.20;99.90
11736;DHT22;5924;51.398;7.088;2022-07-15T04:03:52;12.30;99.90
11736;DHT22;5924;51.398;7.088;2022-07-15T04:06:19;12.70;99.90
11736;DHT22;5924;51.398;7.088;2022-07-15T04:08:46;12.40;99.90
11736;DHT22;5924;51.398;7.088;2022-07-15T04:11:12;12.40;99.90
11736;DHT22;5924;51.398;7.088;2022-07-15T04:13:39;12.40;99.90
11736;DHT22;5924;51.398;7.088;2022-07-15T04:16:05;12.40;99.90
11736;DHT22;5924;51.398;7.088;2022-07-15T04:18:31;12.40;99.90
11736;DHT22;5924;51.398;7.088;2022-07-15T04:20:57;12.50;99.90
11736;DHT22;5924;51.398;7.088;2022-07-15T04:23:23;12.50;99.90
11736;DHT22;5924;51.398;7.088;2022-07-15T04:25:50;12.60;99.90
11736;DHT22;5924;51.398;7.088;2022-07-15T04:28:21;12.60;99.90
11736;DHT22;5924;51.398;7.088;2022-07-15T04:30:47;12.60;99.90
11736;DHT22;5924;51.398;7.088;2022-07-15T04:33:14;12.60;99.90
11736;DHT22;5924;51.398;7.088;2022-07-15T04:35:41;12.70;99.90
11736;DHT22;5924;51.398;7.088;2022-07-15T04:38:06;12.70;99.90
11736;DHT22;5924;51.398;7.088;2022-07-15T04:40:32;12.80;99.90
11736;DHT22;5924;51.398;7.088;2022-07-15T04:42:59;12.80;99.90
11736;DHT22;5924;51.398;7.088;2022-07-15T04:45:28;12.80;99.90
11736;DHT22;5924;51.398;7.088;2022-07-15T04:47:54;12.80;99.90
11736;DHT22;5924;51.398;7.088;2022-07-15T04:50:20;12.90;99.90
11736;DHT22;5924;51.398;7.088;2022-07-15T04:53:06;12.90;99.90
11736;DHT22;5924;51.398;7.088;2022-07-15T04:55:32;12.90;99.90
11736;DHT22;5924;51.398;7.088;2022-07-15T04:57:59;13.00;99.90
11736;DHT22;5924;51.398;7.088;2022-07-15T05:00:25;12.00;99.90
11736;DHT22;5924;51.398;7.088;2022-07-15T05:02:51;13.00;99.90
11736;DHT22;5924;51.398;7.088;2022-07-15T05:05:16;14.30;99.90
11736;DHT22;5924;51.398;7.088;2022-07-15T05:07:42;13.00;99.90
11736;DHT22;5924;51.398;7.088;2022-07-15T05:10:09;13.00;99.90
11736;DHT22;5924;51.398;7.088;2022-07-15T05:12:36;13.00;99.90
11736;DHT22;5924;51.398;7.088;2022-07-15T05:15:03;13.10;99.90
11736;DHT22;5924;51.398;7.088;2022-07-15T05:17:29;13.10;99.90
11736;DHT22;5924;51.398;7.088;2022-07-15T05:19:54;13.10;99.90
11736;DHT22;5924;51.398;7.088;2022-07-15T05:22:20;13.20;99.90
11736;DHT22;5924;51.398;7.088;2022-07-15T05:24:46;13.20;99.90
11736;DHT22;5924;51.398;7.088;2022-07-15T05:27:12;13.20;99.90
11736;DHT22;5924;51.398;7.088;2022-07-15T05:29:38;13.30;99.90
11736;DHT22;5924;51.398;7.088;2022-07-15T05:32:03;13.40;99.90
11736;DHT22;5924;51.398;7.088;2022-07-15T05:34:29;13.50;99.90
11736;DHT22;5924;51.398;7.088;2022-07-15T05:36:55;13.60;99.90
11736;DHT22;5924;51.398;7.088;2022-07-15T05:39:20;13.70;99.90
11736;DHT22;5924;51.398;7.088;2022-07-15T05:41:46;13.80;99.90
11736;DHT22;5924;51.398;7.088;2022-07-15T05:44:12;13.90;99.90
11736;DHT22;5924;51.398;7.088;2022-07-15T05:46:38;13.90;99.90
11736;DHT22;5924;51.398;7.088;2022-07-15T05:49:03;14.00;99.90
11736;DHT22;5924;51.398;7.088;2022-07-15T05:51:29;14.00;99.90
11736;DHT22;5924;51.398;7.088;2022-07-15T05:53:55;14.00;99.90
11736;DHT22;5924;51.398;7.088;2022-07-15T05:56:20;14.10;99.90
11736;DHT22;5924;51.398;7.088;2022-07-15T05:58:47;14.10;1.00
11736;DHT22;5924;51.398;7.088;2022-07-15T06:01:13;14.10;1.00
11736;DHT22;5924;51.398;7.088;2022-07-15T06:03:38;14.20;1.00
11736;DHT22;5924;51.398;7.088;2022-07-15T06:06:04;14.10;1.00
11736;DHT22;5924;51.398;7.088;2022-07-15T06:08:32;14.10;1.00
11736;DHT22;5924;51.398;7.088;2022-07-15T06:10:58;14.10;1.00
11736;DHT22;5924;51.398;7.088;2022-07-15T06:13:23;14.10;1.00
11736;DHT22;5924;51.398;7.088;2022-07-15T06:15:49;14.10;1.00
11736;DHT22;5924;51.398;7.088;2022-07-15T06:18:15;14.10;1.00
11736;DHT22;5924;51.398;7.088;2022-07-15T06:20:41;14.10;1.00
11736;DHT22;5924;51.398;7.088;2022-07-15T06:23:07;14.20;1.00
11736;DHT22;5924;51.398;7.088;2022-07-15T06:25:33;14.20;1.00
11736;DHT22;5924;51.398;7.088;2022-07-15T06:27:58;14.20;1.00
11736;DHT22;5924;51.398;7.088;2022-07-15T06:30:24;14.30;1.00
11736;DHT22;5924;51.398;7.088;2022-07-15T06:32:49;14.40;1.00
11736;DHT22;5924;51.398;7.088;2022-07-15T06:35:15;14.50;1.00
11736;DHT22;5924;51.398;7.088;2022-07-15T06:37:41;14.60;1.00
11736;DHT22;5924;51.398;7.088;2022-07-15T06:40:07;13.90;1.00
11736;DHT22;5924;51.398;7.088;2022-07-15T06:42:33;14.70;1.00
11736;DHT22;5924;51.398;7.088;2022-07-15T06:44:59;14.80;1.00
11736;DHT22;5924;51.398;7.088;2022-07-15T06:47:24;14.90;1.00
11736;DHT22;5924;51.398;7.088;2022-07-15T06:49:50;15.10;1.00
11736;DHT22;5924;51.398;7.088;2022-07-15T06:52:16;15.20;99.90
11736;DHT22;5924;51.398;7.088;2022-07-15T06:54:42;15.40;99.90
11736;DHT22;5924;51.398;7.088;2022-07-15T06:57:08;15.50;99.90
11736;DHT22;5924;51.398;7.088;2022-07-15T06:59:34;15.70;99.90
11736;DHT22;5924;51.398;7.088;2022-07-15T07:02:00;15.90;99.90
11736;DHT22;5924;51.398;7.088;2022-07-15T07:04:26;16.10;1.00
11736;DHT22;5924;51.398;7.088;2022-07-15T07:06:52;16.30;1.00
11736;DHT22;5924;51.398;7.088;2022-07-15T07:09:17;16.50;1.00
11736;DHT22;5924;51.398;7.088;2022-07-15T07:11:43;16.70;1.00
11736;DHT22;5924;51.398;7.088;2022-07-15T07:14:09;16.80;1.00
11736;DHT22;5924;51.398;7.088;2022-07-15T07:16:35;16.90;1.00
11736;DHT22;5924;51.398;7.088;2022-07-15T07:19:00;16.90;1.00
11736;DHT22;5924;51.398;7.088;2022-07-15T07:21:26;17.10;99.90
11736;DHT22;5924;51.398;7.088;2022-07-15T07:23:52;17.20;99.90
11736;DHT22;5924;51.398;7.088;2022-07-15T07:26:18;17.40;99.90
11736;DHT22;5924;51.398;7.088;2022-07-15T07:28:44;17.60;99.90
11736;DHT22;5924;51.398;7.088;2022-07-15T07:31:13;17.80;99.90
11736;DHT22;5924;51.398;7.088;2022-07-15T07:33:39;17.90;99.90
11736;DHT22;5924;51.398;7.088;2022-07-15T07:36:05;17.80;99.90
11736;DHT22;5924;51.398;7.088;2022-07-15T07:38:32;17.80;99.90
11736;DHT22;5924;51.398;7.088;2022-07-15T07:40:58;17.80;99.90
11736;DHT22;5924;51.398;7.088;2022-07-15T07:43:24;17.80;99.90
11736;DHT22;5924;51.398;7.088;2022-07-15T07:45:50;17.80;99.90
11736;DHT22;5924;51.398;7.088;2022-07-15T07:48:16;17.70;99.90
11736;DHT22;5924;51.398;7.088;2022-07-15T07:50:43;17.70;99.90
11736;DHT22;5924;51.398;7.088;2022-07-15T07:53:09;17.80;99.90
11736;DHT22;5924;51.398;7.088;2022-07-15T07:55:36;17.90;99.90
11736;DHT22;5924;51.398;7.088;2022-07-15T07:58:02;17.80;99.90
11736;DHT22;5924;51.398;7.088;2022-07-15T08:00:29;17.90;99.90
11736;DHT22;5924;51.398;7.088;2022-07-15T08:02:56;18.00;99.90
11736;DHT22;5924;51.398;7.088;2022-07-15T08:05:23;16.60;99.90
11736;DHT22;5924;51.398;7.088;2022-07-15T08:07:49;18.70;99.90
11736;DHT22;5924;51.398;7.088;2022-07-15T08:10:16;18.80;99.90
11736;DHT22;5924;51.398;7.088;2022-07-15T08:12:42;18.80;99.90
11736;DHT22;5924;51.398;7.088;2022-07-15T08:15:10;18.80;99.90
11736;DHT22;5924;51.398;7.088;2022-07-15T08:17:37;18.80;99.90
11736;DHT22;5924;51.398;7.088;2022-07-15T08:20:05;18.70;99.90
11736;DHT22;5924;51.398;7.088;2022-07-15T08:22:33;17.50;99.90
11736;DHT22;5924;51.398;7.088;2022-07-15T08:24:59;18.50;99.90
11736;DHT22;5924;51.398;7.088;2022-07-15T08:27:24;18.40;99.90
11736;DHT22;5924;51.398;7.088;2022-07-15T08:29:50;18.30;99.90
11736;DHT22;5924;51.398;7.088;2022-07-15T08:32:16;18.20;99.90
11736;DHT22;5924;51.398;7.088;2022-07-15T08:34:41;18.10;99.90
11736;DHT22;5924;51.398;7.088;2022-07-15T08:37:08;18.20;99.90
11736;DHT22;5924;51.398;7.088;2022-07-15T08:39:35;18.30;99.90
11736;DHT22;5924;51.398;7.088;2022-07-15T08:42:03;18.50;99.90
11736;DHT22;5924;51.398;7.088;2022-07-15T08:44:29;18.60;99.90
11736;DHT22;5924;51.398;7.088;2022-07-15T08:47:04;18.50;99.90
11736;DHT22;5924;51.398;7.088;2022-07-15T08:49:32;18.60;99.90
11736;DHT22;5924;51.398;7.088;2022-07-15T08:52:01;18.70;99.90
11736;DHT22;5924;51.398;7.088;2022-07-15T08:54:28;19.00;99.90
11736;DHT22;5924;51.398;7.088;2022-07-15T08:56:54;19.30;99.90
11736;DHT22;5924;51.398;7.088;2022-07-15T08:59:20;19.70;99.90
11736;DHT22;5924;51.398;7.088;2022-07-15T09:01:48;19.80;99.90
11736;DHT22;5924;51.398;7.088;2022-07-15T09:04:15;19.70;99.90
11736;DHT22;5924;51.398;7.088;2022-07-15T09:06:43;20.00;99.90
11736;DHT22;5924;51.398;7.088;2022-07-15T09:12:05;19.70;99.90
11736;DHT22;5924;51.398;7.088;2022-07-15T09:14:33;19.60;99.90
11736;DHT22;5924;51.398;7.088;2022-07-15T09:22:21;21.20;99.90
11736;DHT22;5924;51.398;7.088;2022-07-15T09:25:12;21.20;99.90
11736;DHT22;5924;51.398;7.088;2022-07-15T09:27:42;21.30;99.90
11736;DHT22;5924;51.398;7.088;2022-07-15T09:30:15;20.80;99.90
11736;DHT22;5924;51.398;7.088;2022-07-15T09:33:01;20.20;99.90
11736;DHT22;5924;51.398;7.088;2022-07-15T09:35:46;19.70;99.90
11736;DHT22;5924;51.398;7.088;2022-07-15T09:41:36;18.90;99.90
11736;DHT22;5924;51.398;7.088;2022-07-15T09:44:21;18.80;99.90
11736;DHT22;5924;51.398;7.088;2022-07-15T09:46:59;18.60;99.90
11736;DHT22;5924;51.398;7.088;2022-07-15T09:54:32;18.60;99.90
11736;DHT22;5924;51.398;7.088;2022-07-15T09:57:02;19.10;99.90
11736;DHT22;5924;51.398;7.088;2022-07-15T09:59:28;19.50;99.90
11736;DHT22;5924;51.398;7.088;2022-07-15T10:01:55;20.20;99.90
11736;DHT22;5924;51.398;7.088;2022-07-15T10:04:22;21.30;99.90
11736;DHT22;5924;51.398;7.088;2022-07-15T10:06:50;22.00;99.90
11736;DHT22;5924;51.398;7.088;2022-07-15T10:09:22;22.10;99.90
11736;DHT22;5924;51.398;7.088;2022-07-15T10:11:52;22.00;99.90
11736;DHT22;5924;51.398;7.088;2022-07-15T10:22:53;21.80;99.90
11736;DHT22;5924;51.398;7.088;2022-07-15T10:28:17;22.10;99.90
11736;DHT22;5924;51.398;7.088;2022-07-15T10:30:45;21.70;99.90
11736;DHT22;5924;51.398;7.088;2022-07-15T10:33:19;21.10;99.90
11736;DHT22;5924;51.398;7.088;2022-07-15T10:35:51;20.80;99.90
11736;DHT22;5924;51.398;7.088;2022-07-15T10:38:34;20.80;99.90
11736;DHT22;5924;51.398;7.088;2022-07-15T10:48:42;21.30;99.90
11736;DHT22;5924;51.398;7.088;2022-07-15T10:51:08;21.20;99.90
11736;DHT22;5924;51.398;7.088;2022-07-15T10:53:45;21.00;99.90
11736;DHT22;5924;51.398;7.088;2022-07-15T10:56:34;21.00;99.90
11736;DHT22;5924;51.398;7.088;2022-07-15T10:59:11;20.90;99.90
11736;DHT22;5924;51.398;7.088;2022-07-15T11:01:41;20.80;99.90
11736;DHT22;5924;51.398;7.088;2022-07-15T11:04:17;21.10;99.90
11736;DHT22;5924;51.398;7.088;2022-07-15T11:12:24;22.10;99.90
11736;DHT22;5924;51.398;7.088;2022-07-15T11:15:14;22.30;99.90
11736;DHT22;5924;51.398;7.088;2022-07-15T11:17:44;22.70;99.90
11736;DHT22;5924;51.398;7.088;2022-07-15T11:22:52;22.10;99.90
11736;DHT22;5924;51.398;7.088;2022-07-15T11:25:21;21.50;99.90
11736;DHT22;5924;51.398;7.088;2022-07-15T11:28:11;21.10;99.90
11736;DHT22;5924;51.398;7.088;2022-07-15T11:30:40;20.90;99.90
11736;DHT22;5924;51.398;7.088;2022-07-15T11:33:13;21.20;99.90
11736;DHT22;5924;51.398;7.088;2022-07-15T11:35:51;21.60;99.90
11736;DHT22;5924;51.398;7.088;2022-07-15T11:38:22;22.00;99.90
11736;DHT22;5924;51.398;7.088;2022-07-15T11:40:54;22.30;99.70
11736;DHT22;5924;51.398;7.088;2022-07-15T11:43:39;20.60;97.30
11736;DHT22;5924;51.398;7.088;2022-07-15T11:46:24;22.60;97.70
11736;DHT22;5924;51.398;7.088;2022-07-15T11:48:51;22.30;97.60
11736;DHT22;5924;51.398;7.088;2022-07-15T11:51:27;22.00;97.20
11736;DHT22;5924;51.398;7.088;2022-07-15T11:53:54;21.70;96.80
11736;DHT22;5924;51.398;7.088;2022-07-15T11:56:20;21.40;96.70
11736;DHT22;5924;51.398;7.088;2022-07-15T11:58:51;21.20;95.70
11736;DHT22;5924;51.398;7.088;2022-07-15T12:01:20;21.00;97.10
11736;DHT22;5924;51.398;7.088;2022-07-15T12:03:52;20.90;98.00
11736;DHT22;5924;51.398;7.088;2022-07-15T12:06:28;20.90;97.00
11736;DHT22;5924;51.398;7.088;2022-07-15T12:08:57;20.70;98.30
11736;DHT22;5924;51.398;7.088;2022-07-15T12:11:29;20.80;97.20
11736;DHT22;5924;51.398;7.088;2022-07-15T12:19:32;22.30;96.70
11736;DHT22;5924;51.398;7.088;2022-07-15T12:22:08;23.10;94.00
11736;DHT22;5924;51.398;7.088;2022-07-15T12:24:48;23.70;93.60
11736;DHT22;5924;51.398;7.088;2022-07-15T12:27:17;24.30;92.80
11736;DHT22;5924;51.398;7.088;2022-07-15T12:29:43;25.30;91.70
11736;DHT22;5924;51.398;7.088;2022-07-15T12:32:11;25.20;86.40
11736;DHT22;5924;51.398;7.088;2022-07-15T12:37:13;25.40;91.10
11736;DHT22;5924;51.398;7.088;2022-07-15T12:40:08;25.60;81.20
11736;DHT22;5924;51.398;7.088;2022-07-15T12:42:46;26.10;82.70
11736;DHT22;5924;51.398;7.088;2022-07-15T12:45:23;25.60;79.60
11736;DHT22;5924;51.398;7.088;2022-07-15T12:48:09;24.70;78.60
11736;DHT22;5924;51.398;7.088;2022-07-15T12:53:14;23.80;85.50
11736;DHT22;5924;51.398;7.088;2022-07-15T12:55:43;22.80;84.60
11736;DHT22;5924;51.398;7.088;2022-07-15T12:58:11;22.80;86.50
11736;DHT22;5924;51.398;7.088;2022-07-15T13:00:39;22.90;86.60
11736;DHT22;5924;51.398;7.088;2022-07-15T13:05:52;22.10;82.20
11736;DHT22;5924;51.398;7.088;2022-07-15T13:08:20;23.20;88.50
11736;DHT22;5924;51.398;7.088;2022-07-15T13:10:49;25.00;83.10
11736;DHT22;5924;51.398;7.088;2022-07-15T13:13:16;26.60;81.50
11736;DHT22;5924;51.398;7.088;2022-07-15T13:15:44;28.10;77.50
11736;DHT22;5924;51.398;7.088;2022-07-15T13:18:10;29.10;73.00
11736;DHT22;5924;51.398;7.088;2022-07-15T13:20:36;30.40;70.30
11736;DHT22;5924;51.398;7.088;2022-07-15T13:23:02;30.80;62.60
11736;DHT22;5924;51.398;7.088;2022-07-15T13:25:29;30.10;59.80
11736;DHT22;5924;51.398;7.088;2022-07-15T13:27:55;30.30;60.70
11736;DHT22;5924;51.398;7.088;2022-07-15T13:30:21;31.20;55.90
11736;DHT22;5924;51.398;7.088;2022-07-15T13:32:47;31.90;55.10
11736;DHT22;5924;51.398;7.088;2022-07-15T13:35:14;31.70;52.50
11736;DHT22;5924;51.398;7.088;2022-07-15T13:37:40;30.40;55.10
11736;DHT22;5924;51.398;7.088;2022-07-15T13:40:07;28.90;56.60
11736;DHT22;5924;51.398;7.088;2022-07-15T13:42:33;27.80;56.60
11736;DHT22;5924;51.398;7.088;2022-07-15T13:44:59;27.00;58.90
11736;DHT22;5924;51.398;7.088;2022-07-15T13:47:25;26.00;58.60
11736;DHT22;5924;51.398;7.088;2022-07-15T13:49:51;25.10;62.00
11736;DHT22;5924;51.398;7.088;2022-07-15T13:52:47;24.50;62.60
11736;DHT22;5924;51.398;7.088;2022-07-15T13:55:14;23.80;62.30
11736;DHT22;5924;51.398;7.088;2022-07-15T13:57:40;23.50;64.10
11736;DHT22;5924;51.398;7.088;2022-07-15T14:00:09;23.40;62.40
11736;DHT22;5924;51.398;7.088;2022-07-15T14:02:39;23.50;65.50
11736;DHT22;5924;51.398;7.088;2022-07-15T14:05:06;23.40;66.40
11736;DHT22;5924;51.398;7.088;2022-07-15T14:07:33;23.10;64.40
11736;DHT22;5924;51.398;7.088;2022-07-15T14:09:58;22.80;65.00
11736;DHT22;5924;51.398;7.088;2022-07-15T14:12:24;22.60;66.60
11736;DHT22;5924;51.398;7.088;2022-07-15T14:14:50;22.50;67.70
11736;DHT22;5924;51.398;7.088;2022-07-15T14:17:16;22.40;68.00
11736;DHT22;5924;51.398;7.088;2022-07-15T14:19:41;22.50;69.20
11736;DHT22;5924;51.398;7.088;2022-07-15T14:22:07;22.80;71.80
11736;DHT22;5924;51.398;7.088;2022-07-15T14:24:33;23.30;69.50
11736;DHT22;5924;51.398;7.088;2022-07-15T14:26:58;23.70;67.50
11736;DHT22;5924;51.398;7.088;2022-07-15T14:29:24;23.80;66.40
11736;DHT22;5924;51.398;7.088;2022-07-15T14:31:51;24.00;65.40
11736;DHT22;5924;51.398;7.088;2022-07-15T14:34:16;23.90;64.70
11736;DHT22;5924;51.398;7.088;2022-07-15T14:36:42;23.70;67.00
11736;DHT22;5924;51.398;7.088;2022-07-15T14:39:09;23.70;68.70
11736;DHT22;5924;51.398;7.088;2022-07-15T14:41:34;23.70;68.30
11736;DHT22;5924;51.398;7.088;2022-07-15T14:44:01;23.70;69.00
11736;DHT22;5924;51.398;7.088;2022-07-15T14:46:27;23.70;69.00
11736;DHT22;5924;51.398;7.088;2022-07-15T14:48:53;23.90;67.30
11736;DHT22;5924;51.398;7.088;2022-07-15T14:51:19;23.60;68.60
11736;DHT22;5924;51.398;7.088;2022-07-15T14:53:45;23.50;68.40
11736;DHT22;5924;51.398;7.088;2022-07-15T14:56:10;23.30;68.40
11736;DHT22;5924;51.398;7.088;2022-07-15T14:58:36;23.10;68.90
11736;DHT22;5924;51.398;7.088;2022-07-15T15:01:02;23.00;70.50
11736;DHT22;5924;51.398;7.088;2022-07-15T15:03:27;23.00;71.10
11736;DHT22;5924;51.398;7.088;2022-07-15T15:05:54;23.00;70.40
11736;DHT22;5924;51.398;7.088;2022-07-15T15:08:19;22.90;68.80
11736;DHT22;5924;51.398;7.088;2022-07-15T15:10:45;22.80;68.40
11736;DHT22;5924;51.398;7.088;2022-07-15T15:13:11;22.80;69.40
11736;DHT22;5924;51.398;7.088;2022-07-15T15:15:36;22.80;69.10
11736;DHT22;5924;51.398;7.088;2022-07-15T15:18:02;22.90;68.90
11736;DHT22;5924;51.398;7.088;2022-07-15T15:20:28;23.00;67.50
11736;DHT22;5924;51.398;7.088;2022-07-15T15:22:54;23.30;69.10
11736;DHT22;5924;51.398;7.088;2022-07-15T15:25:20;23.70;68.80
11736;DHT22;5924;51.398;7.088;2022-07-15T15:28:04;24.30;67.70
11736;DHT22;5924;51.398;7.088;2022-07-15T15:30:30;25.30;66.70
11736;DHT22;5924;51.398;7.088;2022-07-15T15:32:56;26.60;65.30
11736;DHT22;5924;51.398;7.088;2022-07-15T15:35:22;27.80;62.30
11736;DHT22;5924;51.398;7.088;2022-07-15T15:37:47;29.40;62.20
11736;DHT22;5924;51.398;7.088;2022-07-15T15:40:13;31.70;60.40
11736;DHT22;5924;51.398;7.088;2022-07-15T15:42:39;33.70;52.30
11736;DHT22;5924;51.398;7.088;2022-07-15T15:45:05;34.20;46.40
11736;DHT22;5924;51.398;7.088;2022-07-15T15:47:31;34.20;46.00
11736;DHT22;5924;51.398;7.088;2022-07-15T15:49:57;33.70;46.00
11736;DHT22;5924;51.398;7.088;2022-07-15T15:52:22;33.70;46.50
11736;DHT22;5924;51.398;7.088;2022-07-15T15:54:48;34.50;46.10
11736;DHT22;5924;51.398;7.088;2022-07-15T15:57:14;35.80;43.80
11736;DHT22;5924;51.398;7.088;2022-07-15T15:59:39;35.40;40.60
11736;DHT22;5924;51.398;7.088;2022-07-15T16:02:05;33.40;42.10
11736;DHT22;5924;51.398;7.088;2022-07-15T16:04:31;32.10;44.60
11736;DHT22;5924;51.398;7.088;2022-07-15T16:06:56;32.50;44.20
11736;DHT22;5924;51.398;7.088;2022-07-15T16:09:22;32.00;43.00
11736;DHT22;5924;51.398;7.088;2022-07-15T16:11:47;32.10;43.60
11736;DHT22;5924;51.398;7.088;2022-07-15T16:14:13;32.30;44.80
11736;DHT22;5924;51.398;7.088;2022-07-15T16:16:39;33.40;42.00
11736;DHT22;5924;51.398;7.088;2022-07-15T16:19:05;33.30;41.70
11736;DHT22;5924;51.398;7.088;2022-07-15T16:21:30;32.20;43.20
11736;DHT22;5924;51.398;7.088;2022-07-15T16:24:15;30.50;45.20
11736;DHT22;5924;51.398;7.088;2022-07-15T16:26:41;29.50;46.70
11736;DHT22;5924;51.398;7.088;2022-07-15T16:29:06;29.20;48.50
11736;DHT22;5924;51.398;7.088;2022-07-15T16:31:32;28.40;48.30
11736;DHT22;5924;51.398;7.088;2022-07-15T16:33:57;27.30;50.50
11736;DHT22;5924;51.398;7.088;2022-07-15T16:36:23;26.20;52.30
11736;DHT22;5924;51.398;7.088;2022-07-15T16:38:49;25.40;54.40
11736;DHT22;5924;51.398;7.088;2022-07-15T16:41:15;24.80;55.60
11736;DHT22;5924;51.398;7.088;2022-07-15T16:43:40;24.40;58.10
11736;DHT22;5924;51.398;7.088;2022-07-15T16:46:06;24.00;58.90
11736;DHT22;5924;51.398;7.088;2022-07-15T16:48:31;23.80;59.30